Aérodrome :
LOGIN :

S'inscrire | Disclaimer

   EN    FR    IT 

 










Légende :    VFR   VFR Marginal   IFR   IFR Intensif   IFR Très Intensif
Visi : 
Plafond : 
>= 8 km
>= 3000ft
5 à 8 km
1000 à 3000 ft
1500m à 5 km
500 à 1000 ft
800 à 1500m
200 à 500 ft
< 800m
< 200 ft
Symboles :   Orages  Brouillard  Fortes neiges  Fortes précipitations  Vent > 20 kt
SIGMETs :   Divers  Orages  Givrage  Turbulence  Onde Orograph.  Cendres Volcan.






- Altitude de l'aérodrome : 659 ft
- Code IATA : LGG


EBLG - Liège

DERNIER METAR :
  • 250520Z 17003KT 0250 R22L/0800N R22R/0900D R04R/0750N FZFG BKN001 M00/M01 Q1021 NOSIG

METARs EXPIRÉS :
  • 250450Z 18003KT 140V210 0500 R22L/1100U R22R/1200N R04R/1100N FZFG SCT001 BKN002 M00/M01 Q1021 TEMPO BKN001
  • 250420Z VRB02KT 0500 R22L/1100N R22R/1000N R04R/1200N FZFG SCT001 BKN002 M00/M01 Q1021 TEMPO BKN001
  • 250350Z 18003KT 0800 R22L/1600D R22R/1800D R04R/1500D FZFG SCT001 BKN002 M01/M01 Q1021 TEMPO 0500 FZFG BKN001
  • 250320Z 18004KT 1500 BR FEW001 BKN002 M01/M02 Q1021 TEMPO 0500 FZFG BKN001
  • 250250Z 18005KT 1000 R22L/P2000N R22R/P2000N R04R/1800D BR FEW001 BKN002 M01/M02 Q1021 TEMPO 0500 FZFG BKN001

TAF TAF EBLG
Valide du 25 à 06h jusqu'au 26 à 12h UTC


250500Z 2506/2612 20003KT 2500 BR SCT003 BKN005
TEMPO 2506/2512 1200 BCFG BKN002
PROB40
TEMPO 2506/2510 0500 FZFG FG BKN001
BECMG 2512/2514 3500 BR
PROB30
TEMPO 2518/2522 1400 BCFG BKN003
BECMG 2522/2524 6000 NSW SCT005 BKN040
PROB30
TEMPO 2600/2606 3500 BR



MET'MAP, la Météo Aéronautique d'un coup d'oeil ! - Copyright ORBIFLY Décembre 2007 - Disclaimer

ORBIFLY MET'MAP TEAM :

Programmation & Développement : Alexandra Zaïnal
Sur une idée originale de : Baudouin d'Aumeries
Assistance à la programmation : Marc-Olivier Méhu
Soutien technique & logistique : Manuel Goepfert

Contact : metmap@orbifly.com




SOURCES & CREDITS :

   NOAA